sensor_id;sensor_type;location;lat;lon;timestamp;pressure;altitude;pressure_sealevel;temperature;humidity
61337;BME280;47212;41.326;2.104;2023-07-22T00:05:01;101445.34;;;27.29;62.44
61337;BME280;47212;41.326;2.104;2023-07-22T00:10:04;101446.97;;;27.31;62.33
61337;BME280;47212;41.326;2.104;2023-07-22T00:15:09;101450.13;;;27.29;62.16
61337;BME280;47212;41.326;2.104;2023-07-22T00:20:17;101440.09;;;27.28;62.20
61337;BME280;47212;41.326;2.104;2023-07-22T00:25:22;101436.94;;;27.29;62.08
61337;BME280;47212;41.326;2.104;2023-07-22T00:30:27;101425.78;;;27.29;61.79
61337;BME280;47212;41.326;2.104;2023-07-22T00:35:30;101410.16;;;27.28;61.85
61337;BME280;47212;41.326;2.104;2023-07-22T00:40:33;101404.94;;;27.27;61.06
61337;BME280;47212;41.326;2.104;2023-07-22T00:45:37;101400.06;;;27.24;61.00
61337;BME280;47212;41.326;2.104;2023-07-22T00:50:39;101394.47;;;27.24;61.07
61337;BME280;47212;41.326;2.104;2023-07-22T00:55:41;101387.28;;;27.23;60.90
61337;BME280;47212;41.326;2.104;2023-07-22T01:05:18;101382.75;;;27.18;61.35
61337;BME280;47212;41.326;2.104;2023-07-22T01:10:21;101384.03;;;27.21;61.46
61337;BME280;47212;41.326;2.104;2023-07-22T01:15:24;101371.31;;;27.23;61.66
61337;BME280;47212;41.326;2.104;2023-07-22T01:20:28;101368.97;;;27.25;61.73
61337;BME280;47212;41.326;2.104;2023-07-22T01:25:34;101376.19;;;27.26;61.49
61337;BME280;47212;41.326;2.104;2023-07-22T01:30:37;101367.44;;;27.28;61.54
61337;BME280;47212;41.326;2.104;2023-07-22T01:35:39;101358.16;;;27.24;61.00
61337;BME280;47212;41.326;2.104;2023-07-22T01:40:44;101357.25;;;27.20;60.92
61337;BME280;47212;41.326;2.104;2023-07-22T01:45:47;101347.16;;;27.15;60.57
61337;BME280;47212;41.326;2.104;2023-07-22T01:50:49;101350.31;;;27.14;60.42
61337;BME280;47212;41.326;2.104;2023-07-22T01:55:54;101356.25;;;27.12;60.02
61337;BME280;47212;41.326;2.104;2023-07-22T02:00:57;101345.44;;;27.11;60.49
61337;BME280;47212;41.326;2.104;2023-07-22T02:06:12;101335.78;;;27.08;59.95
61337;BME280;47212;41.326;2.104;2023-07-22T02:11:20;101326.50;;;27.04;60.79
61337;BME280;47212;41.326;2.104;2023-07-22T02:16:28;101337.69;;;27.04;60.97
61337;BME280;47212;41.326;2.104;2023-07-22T02:21:33;101335.78;;;27.08;61.38
61337;BME280;47212;41.326;2.104;2023-07-22T02:26:38;101335.06;;;27.11;61.06
61337;BME280;47212;41.326;2.104;2023-07-22T02:31:42;101346.25;;;27.11;61.19
61337;BME280;47212;41.326;2.104;2023-07-22T02:36:51;101339.47;;;27.12;61.17
61337;BME280;47212;41.326;2.104;2023-07-22T02:41:55;101350.31;;;27.14;61.35
61337;BME280;47212;41.326;2.104;2023-07-22T02:47:03;101350.66;;;27.12;61.65
61337;BME280;47212;41.326;2.104;2023-07-22T02:52:08;101366.16;;;27.10;61.60
61337;BME280;47212;41.326;2.104;2023-07-22T02:57:14;101366.06;;;27.06;60.97
61337;BME280;47212;41.326;2.104;2023-07-22T03:02:18;101366.78;;;27.03;60.88
61337;BME280;47212;41.326;2.104;2023-07-22T03:07:21;101373.78;;;26.97;60.57
61337;BME280;47212;41.326;2.104;2023-07-22T03:12:23;101377.66;;;26.92;60.48
61337;BME280;47212;41.326;2.104;2023-07-22T03:17:25;101385.94;;;26.89;60.24
61337;BME280;47212;41.326;2.104;2023-07-22T03:22:28;101387.91;;;26.88;60.23
61337;BME280;47212;41.326;2.104;2023-07-22T03:27:30;101386.25;;;26.87;60.19
61337;BME280;47212;41.326;2.104;2023-07-22T03:32:34;101384.31;;;26.88;60.04
61337;BME280;47212;41.326;2.104;2023-07-22T03:37:36;101377.19;;;26.90;59.84
61337;BME280;47212;41.326;2.104;2023-07-22T03:42:40;101381.97;;;26.90;59.84
61337;BME280;47212;41.326;2.104;2023-07-22T03:47:44;101381.84;;;26.86;59.81
61337;BME280;47212;41.326;2.104;2023-07-22T03:52:47;101380.13;;;26.82;59.92
61337;BME280;47212;41.326;2.104;2023-07-22T03:57:50;101380.84;;;26.79;59.80
61337;BME280;47212;41.326;2.104;2023-07-22T04:09:24;101383.63;;;26.79;59.64
61337;BME280;47212;41.326;2.104;2023-07-22T04:14:46;101374.09;;;26.80;59.92
61337;BME280;47212;41.326;2.104;2023-07-22T04:20:10;101378.03;;;26.79;59.85
61337;BME280;47212;41.326;2.104;2023-07-22T04:25:28;101378.75;;;26.76;59.93
61337;BME280;47212;41.326;2.104;2023-07-22T04:30:42;101379.47;;;26.73;59.70
61337;BME280;47212;41.326;2.104;2023-07-22T04:35:46;101377.50;;;26.73;59.91
61337;BME280;47212;41.326;2.104;2023-07-22T04:40:50;101375.50;;;26.74;59.87
61337;BME280;47212;41.326;2.104;2023-07-22T04:45:55;101370.75;;;26.74;59.69
61337;BME280;47212;41.326;2.104;2023-07-22T04:51:02;101362.72;;;26.73;59.82
61337;BME280;47212;41.326;2.104;2023-07-22T04:56:06;101376.22;;;26.71;59.99
61337;BME280;47212;41.326;2.104;2023-07-22T05:01:09;101382.06;;;26.65;59.98
61337;BME280;47212;41.326;2.104;2023-07-22T05:06:19;101372.69;;;26.58;59.89
61337;BME280;47212;41.326;2.104;2023-07-22T05:11:27;101374.47;;;26.50;60.04
61337;BME280;47212;41.326;2.104;2023-07-22T05:16:31;101373.09;;;26.44;59.96
61337;BME280;47212;41.326;2.104;2023-07-22T05:21:37;101377.75;;;26.40;60.18
61337;BME280;47212;41.326;2.104;2023-07-22T05:26:46;101371.34;;;26.40;60.27
61337;BME280;47212;41.326;2.104;2023-07-22T05:32:09;101381.00;;;26.42;60.47
61337;BME280;47212;41.326;2.104;2023-07-22T05:37:34;101381.00;;;26.42;60.41
61337;BME280;47212;41.326;2.104;2023-07-22T05:42:37;101389.84;;;26.44;60.55
61337;BME280;47212;41.326;2.104;2023-07-22T05:47:42;101395.88;;;26.46;60.90
61337;BME280;47212;41.326;2.104;2023-07-22T05:52:46;101397.97;;;26.49;61.13
61337;BME280;47212;41.326;2.104;2023-07-22T05:57:52;101408.41;;;26.52;60.95
61337;BME280;47212;41.326;2.104;2023-07-22T06:02:55;101409.69;;;26.55;61.17
61337;BME280;47212;41.326;2.104;2023-07-22T06:08:02;101406.53;;;26.56;61.35
61337;BME280;47212;41.326;2.104;2023-07-22T06:13:12;101399.88;;;26.61;61.55
61337;BME280;47212;41.326;2.104;2023-07-22T06:18:17;101399.28;;;26.67;61.37
61337;BME280;47212;41.326;2.104;2023-07-22T06:23:19;101403.91;;;26.76;61.72
61337;BME280;47212;41.326;2.104;2023-07-22T06:28:22;101405.00;;;26.87;61.82
61337;BME280;47212;41.326;2.104;2023-07-22T06:33:27;101408.47;;;26.96;62.07
61337;BME280;47212;41.326;2.104;2023-07-22T06:38:30;101413.13;;;27.04;62.11
61337;BME280;47212;41.326;2.104;2023-07-22T06:43:39;101412.41;;;27.07;61.94
61337;BME280;47212;41.326;2.104;2023-07-22T06:48:43;101415.03;;;27.16;61.62
61337;BME280;47212;41.326;2.104;2023-07-22T06:53:53;101426.22;;;27.32;61.34
61337;BME280;47212;41.326;2.104;2023-07-22T06:58:57;101431.72;;;27.44;61.69
61337;BME280;47212;41.326;2.104;2023-07-22T07:04:01;101429.75;;;27.60;60.96
61337;BME280;47212;41.326;2.104;2023-07-22T07:09:07;101440.25;;;27.79;60.45
61337;BME280;47212;41.326;2.104;2023-07-22T07:14:11;101437.44;;;27.95;59.85
61337;BME280;47212;41.326;2.104;2023-07-22T07:19:20;101450.88;;;28.05;59.27
61337;BME280;47212;41.326;2.104;2023-07-22T07:24:30;101457.53;;;28.16;58.23
61337;BME280;47212;41.326;2.104;2023-07-22T07:29:35;101469.81;;;28.27;57.59
61337;BME280;47212;41.326;2.104;2023-07-22T07:34:55;101475.00;;;28.44;57.73
61337;BME280;47212;41.326;2.104;2023-07-22T07:40:02;101483.25;;;28.57;56.41
61337;BME280;47212;41.326;2.104;2023-07-22T07:45:13;101485.44;;;28.63;56.16
61337;BME280;47212;41.326;2.104;2023-07-22T07:50:17;101495.34;;;28.61;56.62
61337;BME280;47212;41.326;2.104;2023-07-22T07:55:23;101497.28;;;28.57;56.58
61337;BME280;47212;41.326;2.104;2023-07-22T08:00:28;101488.13;;;28.60;56.90
61337;BME280;47212;41.326;2.104;2023-07-22T08:05:31;101484.72;;;28.50;56.68
61337;BME280;47212;41.326;2.104;2023-07-22T08:10:36;101501.28;;;28.40;56.82
61337;BME280;47212;41.326;2.104;2023-07-22T08:15:43;101500.78;;;28.34;57.14
61337;BME280;47212;41.326;2.104;2023-07-22T08:20:48;101495.25;;;28.38;57.76
61337;BME280;47212;41.326;2.104;2023-07-22T08:25:54;101500.06;;;28.57;58.07
61337;BME280;47212;41.326;2.104;2023-07-22T08:30:59;101516.56;;;28.77;59.04
61337;BME280;47212;41.326;2.104;2023-07-22T08:36:11;101509.59;;;28.87;59.33
61337;BME280;47212;41.326;2.104;2023-07-22T08:41:14;101517.19;;;28.87;59.38
61337;BME280;47212;41.326;2.104;2023-07-22T08:46:27;101519.00;;;28.79;59.73
61337;BME280;47212;41.326;2.104;2023-07-22T08:51:32;101519.53;;;28.84;59.05
61337;BME280;47212;41.326;2.104;2023-07-22T08:56:39;101525.47;;;28.83;58.98
61337;BME280;47212;41.326;2.104;2023-07-22T09:01:51;101521.69;;;28.91;58.92
61337;BME280;47212;41.326;2.104;2023-07-22T09:06:55;101523.16;;;29.04;57.83
61337;BME280;47212;41.326;2.104;2023-07-22T09:12:01;101527.72;;;28.93;57.44
61337;BME280;47212;41.326;2.104;2023-07-22T09:17:09;101536.00;;;28.86;57.11
61337;BME280;47212;41.326;2.104;2023-07-22T09:22:24;101543.50;;;29.01;56.61
61337;BME280;47212;41.326;2.104;2023-07-22T09:27:35;101547.44;;;28.97;56.98
61337;BME280;47212;41.326;2.104;2023-07-22T09:32:41;101558.22;;;28.79;57.62
61337;BME280;47212;41.326;2.104;2023-07-22T09:37:49;101574.78;;;28.68;57.74
61337;BME280;47212;41.326;2.104;2023-07-22T09:43:00;101572.16;;;28.60;58.31
61337;BME280;47212;41.326;2.104;2023-07-22T09:48:09;101569.66;;;28.54;58.42
61337;BME280;47212;41.326;2.104;2023-07-22T09:53:18;101586.94;;;28.41;58.69
61337;BME280;47212;41.326;2.104;2023-07-22T09:58:25;101588.34;;;28.19;59.83
61337;BME280;47212;41.326;2.104;2023-07-22T10:03:32;101598.41;;;28.36;59.30
61337;BME280;47212;41.326;2.104;2023-07-22T10:08:39;101583.84;;;28.62;58.74
61337;BME280;47212;41.326;2.104;2023-07-22T10:13:47;101576.84;;;28.87;58.40
61337;BME280;47212;41.326;2.104;2023-07-22T10:18:59;101586.88;;;29.07;57.95
61337;BME280;47212;41.326;2.104;2023-07-22T10:24:02;101599.00;;;29.11;58.17
61337;BME280;47212;41.326;2.104;2023-07-22T10:29:05;101616.91;;;29.07;57.95
61337;BME280;47212;41.326;2.104;2023-07-22T10:34:15;101623.19;;;29.00;57.17
61337;BME280;47212;41.326;2.104;2023-07-22T10:39:29;101621.09;;;28.97;56.05
61337;BME280;47212;41.326;2.104;2023-07-22T10:44:36;101610.41;;;29.03;55.41
61337;BME280;47212;41.326;2.104;2023-07-22T10:49:44;101618.00;;;29.02;54.81
61337;BME280;47212;41.326;2.104;2023-07-22T10:54:48;101626.38;;;28.83;56.03
61337;BME280;47212;41.326;2.104;2023-07-22T10:59:55;101631.34;;;28.90;56.03
61337;BME280;47212;41.326;2.104;2023-07-22T11:04:59;101638.41;;;28.83;55.80
61337;BME280;47212;41.326;2.104;2023-07-22T11:10:16;101636.59;;;28.91;54.78
61337;BME280;47212;41.326;2.104;2023-07-22T11:15:30;101632.16;;;28.90;55.72
61337;BME280;47212;41.326;2.104;2023-07-22T11:20:35;101645.28;;;28.86;55.79
61337;BME280;47212;41.326;2.104;2023-07-22T11:25:39;101614.25;;;28.79;55.22
61337;BME280;47212;41.326;2.104;2023-07-22T11:30:50;101616.22;;;28.94;54.93
61337;BME280;47212;41.326;2.104;2023-07-22T11:35:57;101619.63;;;29.03;54.32
61337;BME280;47212;41.326;2.104;2023-07-22T11:40:59;101611.03;;;29.12;54.90
61337;BME280;47212;41.326;2.104;2023-07-22T11:46:06;101614.63;;;29.12;53.71
61337;BME280;47212;41.326;2.104;2023-07-22T11:51:15;101621.56;;;29.18;53.88
61337;BME280;47212;41.326;2.104;2023-07-22T11:56:25;101612.84;;;29.04;53.79
61337;BME280;47212;41.326;2.104;2023-07-22T12:01:32;101614.59;;;28.93;53.20
61337;BME280;47212;41.326;2.104;2023-07-22T12:06:37;101600.53;;;28.74;53.11
61337;BME280;47212;41.326;2.104;2023-07-22T12:11:41;101602.53;;;28.73;52.83
61337;BME280;47212;41.326;2.104;2023-07-22T12:16:54;101592.03;;;28.86;51.67
61337;BME280;47212;41.326;2.104;2023-07-22T12:21:58;101589.59;;;28.84;51.72
61337;BME280;47212;41.326;2.104;2023-07-22T12:27:04;101581.44;;;28.79;53.06
61337;BME280;47212;41.326;2.104;2023-07-22T12:32:08;101575.91;;;28.83;52.64
61337;BME280;47212;41.326;2.104;2023-07-22T12:37:13;101590.56;;;28.92;51.91
61337;BME280;47212;41.326;2.104;2023-07-22T12:42:22;101577.91;;;28.82;51.63
61337;BME280;47212;41.326;2.104;2023-07-22T12:47:30;101569.44;;;28.79;51.96
61337;BME280;47212;41.326;2.104;2023-07-22T12:52:38;101583.00;;;28.77;52.41
61337;BME280;47212;41.326;2.104;2023-07-22T12:57:50;101561.38;;;28.77;52.61
61337;BME280;47212;41.326;2.104;2023-07-22T13:02:53;101565.38;;;28.76;53.12
61337;BME280;47212;41.326;2.104;2023-07-22T13:07:57;101557.91;;;28.65;52.67
61337;BME280;47212;41.326;2.104;2023-07-22T13:13:05;101555.53;;;28.67;52.13
61337;BME280;47212;41.326;2.104;2023-07-22T13:18:11;101548.25;;;28.62;51.98
61337;BME280;47212;41.326;2.104;2023-07-22T13:23:15;101546.44;;;28.54;52.72
61337;BME280;47212;41.326;2.104;2023-07-22T13:28:22;101556.53;;;28.59;52.45
61337;BME280;47212;41.326;2.104;2023-07-22T13:33:26;101545.53;;;28.66;51.06
61337;BME280;47212;41.326;2.104;2023-07-22T13:38:30;101554.00;;;28.53;51.73
61337;BME280;47212;41.326;2.104;2023-07-22T13:43:36;101546.44;;;28.54;52.17
61337;BME280;47212;41.326;2.104;2023-07-22T13:48:41;101560.06;;;28.55;52.69
61337;BME280;47212;41.326;2.104;2023-07-22T13:53:46;101550.25;;;28.46;51.17
61337;BME280;47212;41.326;2.104;2023-07-22T13:58:49;101548.38;;;28.34;52.08
61337;BME280;47212;41.326;2.104;2023-07-22T14:03:52;101558.31;;;28.32;51.73
61337;BME280;47212;41.326;2.104;2023-07-22T14:08:59;101553.81;;;28.27;52.13
61337;BME280;47212;41.326;2.104;2023-07-22T14:14:04;101551.44;;;28.29;52.66
61337;BME280;47212;41.326;2.104;2023-07-22T14:19:07;101532.81;;;28.21;51.65
61337;BME280;47212;41.326;2.104;2023-07-22T14:24:09;101527.13;;;28.17;51.97
61337;BME280;47212;41.326;2.104;2023-07-22T14:29:13;101527.13;;;28.17;52.17
61337;BME280;47212;41.326;2.104;2023-07-22T14:34:18;101540.03;;;28.22;50.74
61337;BME280;47212;41.326;2.104;2023-07-22T14:39:26;101526.63;;;28.28;51.35
61337;BME280;47212;41.326;2.104;2023-07-22T14:44:34;101521.63;;;28.21;51.92
61337;BME280;47212;41.326;2.104;2023-07-22T14:49:40;101526.41;;;28.20;52.62
61337;BME280;47212;41.326;2.104;2023-07-22T14:54:57;101535.00;;;28.28;52.26
61337;BME280;47212;41.326;2.104;2023-07-22T15:00:05;101537.00;;;28.27;52.39
61337;BME280;47212;41.326;2.104;2023-07-22T15:05:08;101546.81;;;28.21;52.66
61337;BME280;47212;41.326;2.104;2023-07-22T15:10:10;101523.97;;;28.19;53.27
61337;BME280;47212;41.326;2.104;2023-07-22T15:15:18;101512.34;;;28.17;52.76
61337;BME280;47212;41.326;2.104;2023-07-22T15:20:22;101503.03;;;28.13;53.38
61337;BME280;47212;41.326;2.104;2023-07-22T15:25:26;101498.25;;;28.13;53.34
61337;BME280;47212;41.326;2.104;2023-07-22T15:30:30;101494.19;;;28.11;53.20
61337;BME280;47212;41.326;2.104;2023-07-22T15:35:35;101488.22;;;28.12;53.42
61337;BME280;47212;41.326;2.104;2023-07-22T15:40:44;101489.94;;;28.17;53.59
61337;BME280;47212;41.326;2.104;2023-07-22T15:46:02;101487.13;;;28.17;52.72
61337;BME280;47212;41.326;2.104;2023-07-22T15:51:09;101485.97;;;28.18;53.21
61337;BME280;47212;41.326;2.104;2023-07-22T15:56:15;101482.72;;;28.16;52.20
61337;BME280;47212;41.326;2.104;2023-07-22T16:01:22;101468.72;;;28.16;52.53
61337;BME280;47212;41.326;2.104;2023-07-22T16:06:33;101463.22;;;28.19;53.24
61337;BME280;47212;41.326;2.104;2023-07-22T16:11:40;101465.03;;;28.12;53.05
61337;BME280;47212;41.326;2.104;2023-07-22T16:16:48;101454.13;;;28.07;53.95
61337;BME280;47212;41.326;2.104;2023-07-22T16:21:54;101450.59;;;28.10;54.07
61337;BME280;47212;41.326;2.104;2023-07-22T16:26:59;101438.94;;;28.08;54.20
61337;BME280;47212;41.326;2.104;2023-07-22T16:32:10;101443.81;;;28.11;55.19
61337;BME280;47212;41.326;2.104;2023-07-22T16:37:18;101440.94;;;28.07;55.28
61337;BME280;47212;41.326;2.104;2023-07-22T16:42:22;101441.31;;;28.06;56.07
61337;BME280;47212;41.326;2.104;2023-07-22T16:47:27;101432.38;;;28.00;56.41
61337;BME280;47212;41.326;2.104;2023-07-22T16:52:33;101433.81;;;27.94;56.76
61337;BME280;47212;41.326;2.104;2023-07-22T16:57:38;101424.72;;;27.81;56.84
61337;BME280;47212;41.326;2.104;2023-07-22T17:02:46;101417.44;;;27.77;57.66
61337;BME280;47212;41.326;2.104;2023-07-22T17:07:50;101415.81;;;27.76;57.48
61337;BME280;47212;41.326;2.104;2023-07-22T17:12:55;101403.81;;;27.75;57.65
61337;BME280;47212;41.326;2.104;2023-07-22T17:18:00;101402.34;;;27.81;57.67
61337;BME280;47212;41.326;2.104;2023-07-22T17:23:07;101400.16;;;27.90;57.88
61337;BME280;47212;41.326;2.104;2023-07-22T17:28:13;101392.41;;;27.84;58.23
61337;BME280;47212;41.326;2.104;2023-07-22T17:33:18;101398.09;;;27.87;58.41
61337;BME280;47212;41.326;2.104;2023-07-22T17:38:24;101405.31;;;27.88;58.39
61337;BME280;47212;41.326;2.104;2023-07-22T17:43:28;101401.47;;;27.77;58.39
61337;BME280;47212;41.326;2.104;2023-07-22T17:48:33;101409.19;;;27.68;58.92
61337;BME280;47212;41.326;2.104;2023-07-22T17:53:37;101433.72;;;27.59;59.06
61337;BME280;47212;41.326;2.104;2023-07-22T17:58:41;101425.41;;;27.47;59.44
61337;BME280;47212;41.326;2.104;2023-07-22T18:03:48;101406.56;;;27.44;59.84
61337;BME280;47212;41.326;2.104;2023-07-22T18:08:52;101405.56;;;27.36;60.25
61337;BME280;47212;41.326;2.104;2023-07-22T18:13:58;101413.06;;;27.32;60.43
61337;BME280;47212;41.326;2.104;2023-07-22T18:19:03;101427.50;;;27.34;60.87
61337;BME280;47212;41.326;2.104;2023-07-22T18:24:08;101424.34;;;27.36;60.94
61337;BME280;47212;41.326;2.104;2023-07-22T18:29:17;101427.84;;;27.33;60.72
61337;BME280;47212;41.326;2.104;2023-07-22T18:34:22;101425.06;;;27.33;61.33
61337;BME280;47212;41.326;2.104;2023-07-22T18:39:28;101417.38;;;27.29;61.31
61337;BME280;47212;41.326;2.104;2023-07-22T18:44:40;101411.25;;;27.24;61.83
61337;BME280;47212;41.326;2.104;2023-07-22T18:49:43;101423.25;;;27.24;61.67
61337;BME280;47212;41.326;2.104;2023-07-22T18:54:51;101408.81;;;27.22;62.28
61337;BME280;47212;41.326;2.104;2023-07-22T18:59:56;101393.03;;;27.14;62.46
61337;BME280;47212;41.326;2.104;2023-07-22T19:05:02;101419.63;;;27.08;62.81
61337;BME280;47212;41.326;2.104;2023-07-22T19:10:06;101425.09;;;27.05;63.40
61337;BME280;47212;41.326;2.104;2023-07-22T19:15:10;101461.44;;;27.05;63.26
61337;BME280;47212;41.326;2.104;2023-07-22T19:20:18;101482.63;;;27.06;63.68
61337;BME280;47212;41.326;2.104;2023-07-22T19:25:20;101482.72;;;27.09;63.64
61337;BME280;47212;41.326;2.104;2023-07-22T19:30:30;101448.94;;;27.14;63.27
61337;BME280;47212;41.326;2.104;2023-07-22T19:35:38;101427.28;;;27.11;63.91
61337;BME280;47212;41.326;2.104;2023-07-22T19:40:42;101435.56;;;27.08;64.13
61337;BME280;47212;41.326;2.104;2023-07-22T19:45:47;101448.72;;;27.07;64.54
61337;BME280;47212;41.326;2.104;2023-07-22T19:50:54;101453.88;;;27.05;64.79
61337;BME280;47212;41.326;2.104;2023-07-22T19:56:02;101457.13;;;27.07;65.28
61337;BME280;47212;41.326;2.104;2023-07-22T20:01:12;101447.56;;;27.08;64.82
61337;BME280;47212;41.326;2.104;2023-07-22T20:06:17;101437.28;;;27.12;64.90
61337;BME280;47212;41.326;2.104;2023-07-22T20:11:23;101423.78;;;27.14;64.96
61337;BME280;47212;41.326;2.104;2023-07-22T20:16:26;101442.16;;;27.15;65.00
61337;BME280;47212;41.326;2.104;2023-07-22T20:21:35;101463.72;;;27.15;65.48
61337;BME280;47212;41.326;2.104;2023-07-22T20:26:39;101488.06;;;27.14;65.67
61337;BME280;47212;41.326;2.104;2023-07-22T20:31:45;101481.28;;;27.15;65.72
61337;BME280;47212;41.326;2.104;2023-07-22T20:36:58;101462.91;;;27.14;65.53
61337;BME280;47212;41.326;2.104;2023-07-22T20:42:03;101482.00;;;27.12;65.88
61337;BME280;47212;41.326;2.104;2023-07-22T20:47:09;101473.97;;;27.11;65.77
61337;BME280;47212;41.326;2.104;2023-07-22T20:52:13;101485.97;;;27.11;65.79
61337;BME280;47212;41.326;2.104;2023-07-22T20:57:17;101477.59;;;27.11;66.39
61337;BME280;47212;41.326;2.104;2023-07-22T21:02:30;101473.63;;;27.12;66.26
61337;BME280;47212;41.326;2.104;2023-07-22T21:07:38;101485.16;;;27.11;66.56
61337;BME280;47212;41.326;2.104;2023-07-22T21:12:46;101481.19;;;27.12;67.02
61337;BME280;47212;41.326;2.104;2023-07-22T21:17:54;101487.59;;;27.12;66.64
61337;BME280;47212;41.326;2.104;2023-07-22T21:22:57;101495.63;;;27.14;66.91
61337;BME280;47212;41.326;2.104;2023-07-22T21:28:00;101506.00;;;27.13;66.91
61337;BME280;47212;41.326;2.104;2023-07-22T21:33:03;101500.41;;;27.13;66.91
61337;BME280;47212;41.326;2.104;2023-07-22T21:38:06;101498.78;;;27.12;66.93
61337;BME280;47212;41.326;2.104;2023-07-22T21:43:10;101512.28;;;27.10;67.07
61337;BME280;47212;41.326;2.104;2023-07-22T21:48:16;101517.88;;;27.10;67.50
61337;BME280;47212;41.326;2.104;2023-07-22T21:53:19;101509.84;;;27.09;67.39
61337;BME280;47212;41.326;2.104;2023-07-22T21:58:27;101503.81;;;27.07;67.46
61337;BME280;47212;41.326;2.104;2023-07-22T22:03:34;101510.56;;;27.06;67.62
61337;BME280;47212;41.326;2.104;2023-07-22T22:08:36;101516.97;;;27.06;67.59
61337;BME280;47212;41.326;2.104;2023-07-22T22:13:44;101528.13;;;27.06;67.74
61337;BME280;47212;41.326;2.104;2023-07-22T22:18:52;101527.69;;;27.04;67.55
61337;BME280;47212;41.326;2.104;2023-07-22T22:23:59;101528.03;;;27.03;67.18
61337;BME280;47212;41.326;2.104;2023-07-22T22:29:02;101530.38;;;27.01;67.31
61337;BME280;47212;41.326;2.104;2023-07-22T22:34:07;101535.16;;;27.00;67.45
61337;BME280;47212;41.326;2.104;2023-07-22T22:39:23;101540.75;;;27.00;67.61
61337;BME280;47212;41.326;2.104;2023-07-22T22:44:31;101541.91;;;26.99;67.73
61337;BME280;47212;41.326;2.104;2023-07-22T22:49:39;101536.19;;;26.95;67.82
61337;BME280;47212;41.326;2.104;2023-07-22T22:54:44;101532.00;;;26.89;68.08
61337;BME280;47212;41.326;2.104;2023-07-22T22:59:51;101533.19;;;26.88;67.90
61337;BME280;47212;41.326;2.104;2023-07-22T23:04:55;101541.06;;;26.86;68.17
61337;BME280;47212;41.326;2.104;2023-07-22T23:09:58;101539.78;;;26.84;68.13
61337;BME280;47212;41.326;2.104;2023-07-22T23:15:01;101552.13;;;26.83;68.49
61337;BME280;47212;41.326;2.104;2023-07-22T23:20:09;101560.06;;;26.81;68.35
61337;BME280;47212;41.326;2.104;2023-07-22T23:25:20;101554.38;;;26.77;68.84
61337;BME280;47212;41.326;2.104;2023-07-22T23:30:36;101555.88;;;26.75;68.57
61337;BME280;47212;41.326;2.104;2023-07-22T23:35:41;101553.56;;;26.77;68.76
61337;BME280;47212;41.326;2.104;2023-07-22T23:40:46;101556.34;;;26.77;68.78
61337;BME280;47212;41.326;2.104;2023-07-22T23:45:54;101549.59;;;26.78;68.65
61337;BME280;47212;41.326;2.104;2023-07-22T23:50:59;101550.41;;;26.78;68.90
61337;BME280;47212;41.326;2.104;2023-07-22T23:56:07;101551.22;;;26.79;68.81
